Aviation Digital Data Service (ADDS)

Output produced by METARs form (0639 UTC 24 March 2019)
found at http://www.aviationweather.gov/metar/data/
 
KAIG 240635Z AUTO 27006KT 10SM CLR M01/M05 A3008 RMK AO2 T10121051
KATW 240615Z AUTO 23008KT 10SM CLR 03/M02 A3011 RMK AO2
KATW 240520Z 2406/2506 21007KT P6SM SCT200 
     FM241000 27004KT P6SM BKN200 
     FM241500 35008KT P6SM BKN140 
     FM241800 04013G20KT P6SM SCT025 BKN050 
     TEMPO 2419/2423 BKN025 
     FM250200 02010KT P6SM SKC
       
KASX 240553Z AUTO 23008KT 10SM CLR 03/M03 A3008 RMK AO2 SLP193 T00281033 10089 20011 401111089 53006
KDLL 240635Z AUTO 17003KT 10SM BKN110 05/M01 A3014 RMK AO2 T00461015
KBCK 240635Z AUTO 00000KT 10SM CLR M03/M03 A3013 RMK AO2 T10281030
KOVS 240553Z AUTO 00000KT 10SM BKN120 04/00 A3015 RMK AO2 SLP214 T00390000 10111 20039 401391067 58002
KBUU 240635Z AUTO 00000KT 10SM CLR 00/M02 A3017 RMK AO2 T10051016
KY23 240635Z AUTO 00000KT 10SM CLR M03/M04 A3012 RMK AO2 T10301045
KCLI 240635Z AUTO 00000KT 10SM CLR 03/M03 A3012 RMK AO2 T00291027
KUBE 240635Z AUTO 19004KT 10SM CLR M01/M03 A3010 RMK AO2
KEGV 240635Z AUTO 32004KT 10SM CLR 00/M07 A3006 RMK AO2 T00001070
K57C 240635Z AUTO 00000KT 10SM CLR 05/M01 A3016 RMK AO2 T00451014
KFLD 240553Z AUTO 23006KT 10SM CLR 03/M02 A3015 RMK AO2 SLP215 T00331017 10083 20033 401111050 55005
KGRB 240553Z AUTO 21005KT 10SM CLR 04/M01 A3011 RMK AO2 SLP204 T00391011 10089 20039 401111039 56007
KGRB 240520Z 2406/2506 22006KT P6SM SCT200 
     FM241000 27004KT P6SM BKN200 
     FM241400 35008KT P6SM BKN140 
     FM241700 03015G24KT P6SM SCT025 BKN050 
     TEMPO 2418/2422 BKN025 
     FM250200 02012KT P6SM SKC
       
KHYR 240553Z AUTO 00000KT 10SM CLR M01/M03 A3008 RMK AO2 SLP200 T10111033 10067 21017 401001094 56007
KHYR 240530Z 2406/2506 VRB03KT P6SM FEW250 
     FM241300 05012G26KT P6SM BKN015 
     FM242100 04010G18KT P6SM SCT023 
     FM250000 04008KT P6SM FEW023
       
KJVL 240635Z AUTO 15003KT 10SM CLR 05/00 A3016 RMK AO2
KUNU 240635Z AUTO 20003KT 10SM CLR 03/M01 A3016 RMK AO2 T00261007 TSNO
KENW 240553Z AUTO 19004KT 10SM CLR 03/M02 A3019 RMK AO2 SLP227 T00331017 10061 20022 401111056 56004
KENW 240520Z 2406/2506 19005KT P6SM BKN250 
     FM241500 VRB04KT P6SM VCSH OVC050 
     FM241800 VRB04KT 6SM -RA BR OVC030 
     FM242100 04015G24KT P6SM OVC016 
     FM250000 03016G25KT P6SM OVC013
       
KLSE 240553Z AUTO 12003KT 10SM BKN120 04/00 A3013 RMK AO2 SLP209 T00390000 10100 20033 401331039 58001
KLSE 240525Z 2406/2506 VRB03KT P6SM OVC150 
     FM241000 VRB03KT P6SM VCSH OVC070 
     FM241500 05005KT P6SM OVC070 
     FM250000 03010KT P6SM BKN035
       
KRCX 240635Z AUTO 00000KT 10SM CLR M01/M04 A3012 RMK AO2 T10101040
K4R5 240635Z AUTO 22004KT 10SM OVC100 03/M04 A3006 RMK AO2 T00251040
KLNR 240556Z AUTO 00000KT 10SM SCT120 05/01 A3015 RMK AO2 SLP210 T00500006 10100 20044 401281044 58001
KMSN 240553Z AUTO 18003KT 10SM CLR 06/M01 A3015 RMK AO2 SLP216 T00561006 10094 20050 401171044 58004
KMSN 240520Z 2406/2506 VRB03KT P6SM BKN100 
     FM241200 00000KT P6SM VCSH BKN060 
     FM241700 VRB04KT P6SM VCSH OVC035 
     FM242100 05012G20KT P6SM VCSH OVC023 
     FM250300 04013G21KT P6SM SCT030
       
KMTW 240556Z AUTO 00000KT 10SM CLR M01/M03 A3014 RMK AO2 SLP231 T10111028 10028 21022 400781067 56009 FZRANO
KMTW 240520Z 2406/2506 21006KT P6SM BKN200 
     FM241000 27004KT P6SM BKN200 
     FM241500 33007KT P6SM BKN140 
     FM241800 03014G22KT P6SM SCT025 BKN050 
     TEMPO 2419/2423 BKN025 
     FM250200 01011G17KT P6SM SKC
       
KMFI 240554Z AUTO 22004KT 10SM CLR 02/M03 A3010 RMK AO2 SLP203 T00221033 10078 20006 401061056 57006
KMDZ 240635Z AUTO 24004KT 10SM CLR 00/M05 A3010 RMK AO2 T00031049 TSNO
KLUM 240635Z AUTO 00000KT 10SM CLR M02/M05 A3012 RMK AO2 T10201047
KRRL 240635Z AUTO 00000KT 10SM CLR M04/M05 A3011 RMK AO2 T10451052 TSNO
KC29 240635Z AUTO 00000KT 10SM CLR 04/01 A3016 RMK AO1 T00370006
KMKE 240552Z 21006KT 10SM FEW160 BKN220 OVC250 03/M03 A3018 RMK AO2 SLP224 T00331028 10061 20022 401171039 56005
KMKE 240520Z 2406/2512 20005KT P6SM BKN250 
     FM241500 VRB04KT P6SM VCSH BKN060 
     FM242000 03017G26KT P6SM SCT010 BKN020 
     FM250400 03015G25KT P6SM SCT030
       
KMWC 240635Z AUTO 20005KT 10SM CLR 03/M02 A3017 RMK AO2
KMRJ 240615Z AUTO 14004KT 10SM OVC120 05/01 A3013 RMK AO2
KARV 240635Z AUTO 33005KT 10SM CLR 00/M05 A3007 RMK AO2 T10011047
KEFT 240635Z AUTO 10SM SCT120 06/M01 A3014 RMK AO2 T00551006
KCWA 240635Z AUTO 24004KT 10SM CLR 02/M03 A3012 RMK AO2
KCWA 240520Z 2406/2506 27003KT P6SM BKN200 
     FM241300 36005KT P6SM SCT050 BKN140 
     FM241600 04009G16KT P6SM SCT025 BKN050 
     TEMPO 2418/2422 BKN025 
     FM250100 04006KT P6SM SKC AMD LTD TO CLD VIS AND WIND TIL 241100
       
K82C 240635Z AUTO 00000KT 10SM CLR 02/M01 A3013 RMK AO2 T00151008
KRNH 240635Z AUTO 00000KT 10SM CLR 00/M02 A3011 RMK AO2 T10011017
KRNH 240520Z 2406/2506 VRB03KT P6SM BKN200 
     FM241500 03005KT P6SM BKN080 
     FM241800 03010G18KT P6SM SCT025 OVC035 
     FM250200 03007KT P6SM SKC
       
KOCQ 240635Z AUTO 24005KT 10SM CLR 02/M02 A3009 RMK AO1 T00241022
KOEO 240635Z AUTO 00000KT 10SM CLR M01/M01 A3014 RMK AO2 T10071014
KOSH 240553Z AUTO 21007KT 10SM CLR 04/M01 A3013 RMK AO2 SLP210 T00391011 10083 20033 401111056 56005
KPBH 240635Z AUTO 00000KT 10SM CLR M05/M07 A3008 RMK AO2 T10461066
KPVB 240635Z AUTO 15006KT 10SM BKN110 06/01 A3014 RMK AO1 T00580006
KPDC 240635Z AUTO 00000KT 10SM OVC110 05/00 A3013 RMK AO2 T00540001
KRAC 240553Z AUTO 20004KT 10SM CLR 03/M04 A3020 RMK AO2 SLP232 T00281039 10039 20011 400721056 56005
KC35 240635Z AUTO 00000KT 10SM SCT120 03/M01 A3014 RMK AO2 T00281011
KRHI 240553Z AUTO 25006KT 10SM CLR 01/M06 A3007 RMK AO2 SLP195 T00061061 10072 20000 401001100 58010
KRHI 240520Z 2406/2506 25006KT P6SM SCT200 
     FM241100 36005KT P6SM SCT050 BKN200 
     FM241400 04007KT P6SM SCT015 BKN035 
     TEMPO 2414/2416 BKN015 
     FM241600 04008G16KT P6SM SCT025 BKN040 
     TEMPO 2416/2420 BKN025 
     FM242200 03006KT P6SM SCT040
       
KRPD 240635Z AUTO 00000KT 10SM CLR M02/M03 A3012 RMK AO2 T10161026
KEZS 240635Z AUTO 00000KT 10SM CLR 00/M05 A3010 RMK AO2 T00011048
KSBM 240553Z AUTO 21006KT 10SM CLR 01/M02 A3015 RMK AO2 SLP216 T00061022 10039 21006 401061056 55006
KRZN 240615Z AUTO 00000KT 10SM CLR M01/M04 A3010 RMK AO2 T10061040
KOLG 240635Z AUTO 19003KT 10SM CLR 00/M05 A3008 RMK AO1
KCMY 240635Z AUTO 00000KT 10SM BKN120 M01/M03 A3014 RMK AO2 T10081030
KSTE 240635Z AUTO 00000KT 10SM CLR 00/M04 A3013 RMK AO2 T10021039
KSUE 240556Z AUTO 20006KT 10SM CLR 01/M01 A3010 RMK AO2 SLP218 T00111011 10028 20011 400781078 56011 FZRANO
KSUW 240635Z AUTO 00000KT 10SM CLR 02/M03 A3008 RMK AO2 T00161027
KTKV 240635Z AUTO 00000KT 10SM CLR M05/M07 A3009 RMK AO2 T10531071
KY51 240635Z AUTO 16004KT 10SM BKN110 05/00 A3013 RMK AO1 T00530002
KRYV 240635Z AUTO 19003KT 10SM CLR 03/00 A3015 RMK AO2 T00310000
KUES 240635Z AUTO 00000KT 10SM CLR 02/M02 A3017 RMK AO2
KUES 240520Z 2406/2506 20003KT P6SM BKN250 
     FM241400 VRB03KT P6SM SCT035 BKN060 
     FM241600 VRB03KT P6SM VCSH SCT030 BKN050 
     FM242000 05014G23KT P6SM VCSH OVC028 
     FM250400 04014G24KT P6SM SCT030
       
KPCZ 240635Z AUTO 22003KT 10SM CLR 03/M02 A3013 RMK AO2 T00251022
KAUW 240554Z AUTO 00000KT 10SM CLR M02/M04 A3009 RMK AO2 SLP204 T10171044 10078 21022 400891072 56007
KAUW 240520Z 2406/2506 27003KT P6SM BKN200 
     FM241300 36005KT P6SM SCT050 BKN140 
     FM241600 04009G16KT P6SM SCT025 BKN050 
     TEMPO 2418/2422 BKN025 
     FM250100 04006KT P6SM SKC
       
KY50 240556Z AUTO 00000KT 10SM CLR M01/M02 A3015 RMK AO2 SLP239 T10111022 10100 21017 401281078 56002 FZRANO $
KETB 240635Z AUTO 00000KT 10SM CLR 02/M01 A3015 RMK AO2
KISW 240554Z AUTO 21005KT 10SM CLR 01/M04 A3013 RMK AO2 SLP212 T00111044 10094 21011 401221067 57003 TSNO